createdAt,value
2019-05-13T08:54:57.196Z,58.25
2019-05-13T08:57:37.448Z,68.87
2019-05-13T09:00:15.032Z,71.65
2019-05-13T09:02:52.687Z,60.12
2019-05-13T09:05:31.872Z,67.15
2019-05-13T09:08:07.831Z,64.60
2019-05-13T09:10:44.666Z,65.35
2019-05-13T09:15:56.482Z,83.72
2019-05-13T09:18:32.904Z,75.85
2019-05-13T09:21:11.651Z,85.87
2019-05-13T09:23:51.389Z,67.15
2019-05-13T09:26:32.091Z,131.10
2019-05-13T09:29:11.819Z,136.55
2019-05-13T09:31:57.477Z,93.15
2019-05-13T09:34:42.558Z,98.05
2019-05-13T09:37:18.942Z,109.50
2019-05-13T09:39:56.421Z,128.27
2019-05-13T09:42:48.139Z,97.62
2019-05-13T09:45:13.611Z,92.62
2019-05-13T09:47:52.533Z,117.10
2019-05-13T09:50:32.335Z,126.82
2019-05-13T09:53:05.414Z,91.50
2019-05-13T09:55:41.518Z,94.17
2019-05-13T09:58:22.299Z,92.78
2019-05-13T10:00:59.715Z,91.65
2019-05-13T10:03:53.130Z,95.50
2019-05-13T10:06:16.424Z,90.77
2019-05-13T10:08:54.776Z,94.80
2019-05-13T10:11:30.757Z,91.92
2019-05-13T10:14:11.308Z,106.20
2019-05-13T10:16:48.100Z,110.85
2019-05-13T10:19:26.574Z,94.17
2019-05-13T10:22:02.764Z,95.20
2019-05-13T10:24:42.362Z,93.43
2019-05-13T10:27:22.106Z,93.40
2019-05-13T10:29:59.274Z,84.70
2019-05-13T10:32:35.157Z,93.22
2019-05-13T10:35:12.677Z,78.42
2019-05-13T10:37:49.688Z,77.37
2019-05-13T10:40:32.701Z,83.45
2019-05-13T10:43:05.529Z,72.95
2019-05-13T10:45:52.311Z,74.45
2019-05-13T10:48:30.190Z,75.10
2019-05-13T10:51:06.450Z,73.15
2019-05-13T10:53:43.579Z,75.50
2019-05-13T10:56:23.805Z,71.05
2019-05-13T10:59:03.924Z,71.92
2019-05-13T11:01:42.629Z,81.12
2019-05-13T11:04:22.104Z,81.95
2019-05-13T11:06:59.704Z,92.40
2019-05-13T11:09:37.048Z,91.60
2019-05-13T11:12:13.366Z,91.15
2019-05-13T11:14:55.117Z,90.77
2019-05-13T11:17:35.866Z,93.27
2019-05-13T11:20:14.042Z,84.60
2019-05-13T11:22:53.232Z,80.65
2019-05-13T11:25:32.333Z,85.57
2019-05-13T11:28:12.283Z,84.10
2019-05-13T11:30:51.910Z,85.62
2019-05-13T11:36:03.289Z,82.42
2019-05-13T11:38:45.404Z,90.97
2019-05-13T11:41:22.866Z,86.72
2019-05-13T11:44:12.967Z,92.15
2019-05-13T11:46:38.140Z,90.45
2019-05-13T11:49:14.296Z,95.45
2019-05-13T11:51:52.058Z,100.65
2019-05-13T11:54:28.256Z,105.50
2019-05-13T11:57:06.427Z,88.92
2019-05-13T12:02:22.889Z,97.00
2019-05-13T12:05:02.600Z,105.05
2019-05-13T12:07:37.616Z,107.83
2019-05-13T12:10:15.213Z,109.90
2019-05-13T12:13:00.040Z,109.55
2019-05-13T12:15:46.085Z,105.58
2019-05-13T12:18:17.038Z,107.52
2019-05-13T12:20:54.112Z,115.00
2019-05-13T12:23:36.390Z,119.95
2019-05-13T12:26:12.902Z,115.97
2019-05-13T12:28:53.589Z,115.28
2019-05-13T12:31:33.390Z,113.88
2019-05-13T12:34:08.099Z,123.30
2019-05-13T12:36:47.120Z,135.45
2019-05-13T12:39:25.036Z,123.02
2019-05-13T12:42:03.737Z,105.65
2019-05-13T12:45:00.248Z,98.12
2019-05-13T12:47:30.476Z,102.02
2019-05-13T12:50:13.975Z,94.58
2019-05-13T12:52:51.925Z,93.78
2019-05-13T12:55:32.839Z,94.47
2019-05-13T12:58:07.295Z,95.28
2019-05-13T13:00:44.363Z,91.53
2019-05-13T13:03:23.307Z,95.95
2019-05-13T13:06:22.438Z,93.90
2019-05-13T13:08:43.437Z,96.37
2019-05-13T13:11:12.866Z,85.65
2019-05-13T13:14:01.168Z,87.12
2019-05-13T13:16:37.017Z,87.75
2019-05-13T13:19:15.682Z,84.70
2019-05-13T13:21:53.741Z,85.77
2019-05-13T13:24:32.778Z,79.90
2019-05-13T13:27:25.757Z,81.20
2019-05-13T13:30:02.708Z,85.30
2019-05-13T13:32:33.057Z,86.25
2019-05-13T13:35:14.688Z,85.45
2019-05-13T13:37:49.282Z,81.63
2019-05-13T13:40:29.377Z,85.62
2019-05-13T13:43:05.969Z,87.08
2019-05-13T13:46:22.083Z,83.82
2019-05-13T13:48:44.724Z,88.47
2019-05-13T13:51:39.156Z,80.65
2019-05-13T13:57:16.400Z,84.80
2019-05-13T14:00:33.030Z,87.30
2019-05-13T14:02:42.985Z,86.08
2019-05-13T14:06:59.165Z,82.97
2019-05-13T14:11:03.376Z,98.10
2019-05-13T14:13:43.685Z,97.25
2019-05-13T14:16:30.424Z,101.67
2019-05-13T14:19:02.560Z,101.40
2019-05-13T14:21:42.824Z,105.20
2019-05-13T14:24:28.694Z,110.52
2019-05-13T14:27:08.810Z,115.08
2019-05-13T14:32:43.570Z,108.42
2019-05-13T14:35:23.310Z,115.88
2019-05-13T14:41:12.366Z,114.75
2019-05-13T14:43:57.317Z,111.68
2019-05-13T14:46:47.207Z,115.12
2019-05-13T14:49:27.972Z,109.95
2019-05-13T14:55:02.279Z,103.67
2019-05-13T14:57:41.926Z,97.80
2019-05-13T15:00:21.973Z,99.00
2019-05-13T15:03:05.325Z,102.53
2019-05-13T15:05:45.747Z,97.53
2019-05-13T15:08:25.659Z,95.15
2019-05-13T15:14:22.181Z,98.47
2019-05-13T15:17:07.288Z,97.72
2019-05-13T15:19:49.306Z,96.95
2019-05-13T15:22:26.905Z,76.30
2019-05-13T15:25:08.357Z,86.55
2019-05-13T15:27:48.035Z,87.92
2019-05-13T15:30:28.607Z,87.02
2019-05-13T15:33:10.385Z,83.95
2019-05-13T15:38:51.898Z,87.67
2019-05-13T15:41:29.257Z,86.85
2019-05-13T15:44:11.437Z,86.10
2019-05-13T15:52:42.950Z,89.92
2019-05-13T15:55:21.378Z,88.40
2019-05-13T16:00:54.062Z,91.72
2019-05-13T16:03:32.163Z,95.17
2019-05-13T16:06:08.934Z,88.65
2019-05-13T16:08:51.820Z,89.67
2019-05-13T16:11:35.374Z,93.42
2019-05-13T16:14:16.043Z,90.03
2019-05-13T16:16:51.343Z,91.70
2019-05-13T16:19:45.115Z,93.27
2019-05-13T16:25:21.226Z,86.87
2019-05-13T16:27:58.031Z,88.60
2019-05-13T16:30:35.493Z,83.52
2019-05-13T16:33:15.438Z,84.37
2019-05-13T16:35:53.285Z,86.85
2019-05-13T16:38:34.426Z,84.92
2019-05-13T16:41:14.930Z,85.65
2019-05-13T16:43:50.783Z,86.63
2019-05-13T16:46:27.704Z,87.82
2019-05-13T16:51:42.892Z,98.85
2019-05-13T16:54:21.785Z,98.62
2019-05-13T16:57:01.061Z,102.65
2019-05-13T16:59:36.044Z,95.57
2019-05-13T17:02:13.393Z,92.93
2019-05-13T17:04:53.723Z,93.47
2019-05-13T17:07:33.705Z,98.60
2019-05-13T17:10:13.184Z,101.30
2019-05-13T17:12:49.323Z,94.07
2019-05-13T17:15:26.608Z,97.10
2019-05-13T17:18:18.967Z,99.58
2019-05-13T17:20:54.854Z,96.80
2019-05-13T17:23:32.451Z,99.22
2019-05-13T17:26:08.451Z,99.30
2019-05-13T17:28:51.788Z,103.90
2019-05-13T17:31:27.102Z,92.12
2019-05-13T17:34:05.544Z,94.20
2019-05-13T17:36:41.945Z,91.02
2019-05-13T17:39:18.051Z,92.17
2019-05-13T17:42:01.373Z,88.30
2019-05-13T17:44:35.234Z,89.15
2019-05-13T17:47:11.665Z,91.25
2019-05-13T17:49:51.976Z,93.10
2019-05-13T17:52:30.183Z,108.90
2019-05-13T17:55:06.032Z,88.72
2019-05-13T17:57:43.132Z,85.22
2019-05-13T18:00:21.611Z,87.85
2019-05-13T18:02:57.474Z,85.83
2019-05-13T18:05:37.947Z,80.55
2019-05-13T18:08:14.099Z,68.02
2019-05-13T18:10:51.383Z,66.28
2019-05-13T18:13:28.962Z,59.50
2019-05-13T18:16:12.373Z,58.80
2019-05-13T18:18:48.040Z,56.40
2019-05-13T18:21:25.634Z,62.40
2019-05-13T18:24:02.814Z,66.28
2019-05-13T18:26:43.114Z,60.03
2019-05-13T18:29:19.144Z,58.70
2019-05-13T18:31:56.499Z,57.23
2019-05-13T18:34:32.352Z,53.33
2019-05-13T18:37:08.258Z,55.63
2019-05-13T18:39:45.264Z,52.48
2019-05-13T18:42:22.357Z,55.63
2019-05-13T18:44:58.900Z,54.38
2019-05-13T18:47:35.820Z,55.95
2019-05-13T18:52:47.234Z,60.50
2019-05-13T18:55:22.678Z,59.38
2019-05-13T18:58:01.096Z,61.30
2019-05-13T19:00:36.339Z,60.05
2019-05-13T19:03:12.414Z,57.03
2019-05-13T19:05:49.275Z,65.37
2019-05-13T19:08:26.245Z,59.90
2019-05-13T19:11:01.541Z,57.00
2019-05-13T19:13:37.996Z,61.83
2019-05-13T19:16:13.452Z,63.87
2019-05-13T19:18:49.221Z,62.70
2019-05-13T19:21:26.847Z,62.78
2019-05-13T19:24:04.305Z,61.60
2019-05-13T19:26:41.488Z,59.75
2019-05-13T19:29:16.446Z,59.70
2019-05-13T19:31:55.983Z,69.35
2019-05-13T19:34:32.321Z,56.13
2019-05-13T19:39:47.724Z,60.38
2019-05-13T19:42:24.302Z,62.27
2019-05-13T19:45:01.904Z,56.33
2019-05-13T19:47:37.747Z,55.73
2019-05-13T19:50:14.072Z,57.38
2019-05-13T19:52:51.736Z,60.88
2019-05-13T19:55:26.390Z,62.58
2019-05-13T19:58:01.983Z,59.23
2019-05-13T20:00:38.068Z,58.28
2019-05-13T20:03:14.880Z,57.27
2019-05-13T20:05:51.401Z,53.13
2019-05-13T20:08:31.828Z,58.60
2019-05-13T20:11:06.562Z,52.78
2019-05-13T20:13:42.206Z,66.95
2019-05-13T20:16:18.020Z,64.15
2019-05-13T20:18:53.730Z,63.68
2019-05-13T20:21:31.749Z,65.05
2019-05-13T20:24:06.178Z,62.38
2019-05-13T20:26:42.003Z,69.50
2019-05-13T20:29:17.699Z,69.90
2019-05-13T20:31:53.548Z,70.75
2019-05-13T20:34:31.489Z,73.67
2019-05-13T20:37:07.491Z,70.37
2019-05-13T20:39:44.399Z,66.65
2019-05-13T20:42:23.220Z,69.62
2019-05-13T20:44:57.578Z,68.75
2019-05-13T20:47:33.793Z,66.65
2019-05-13T20:50:12.230Z,63.10
2019-05-13T20:52:47.397Z,72.17
2019-05-13T20:55:22.697Z,75.57
2019-05-13T20:57:58.145Z,77.97
2019-05-13T21:00:33.481Z,71.37
2019-05-13T21:03:11.712Z,72.90
2019-05-13T21:05:47.216Z,86.55
2019-05-13T21:08:23.126Z,83.87
2019-05-13T21:10:59.044Z,64.32
2019-05-13T21:13:34.695Z,69.32
2019-05-13T21:16:11.385Z,77.17
2019-05-13T21:18:47.261Z,63.30
2019-05-13T21:21:22.936Z,69.63
2019-05-13T21:23:58.422Z,72.75
2019-05-13T21:26:35.365Z,66.20
2019-05-13T21:31:45.875Z,68.47
2019-05-13T21:34:21.676Z,64.47
2019-05-13T21:36:57.845Z,55.08
2019-05-13T21:39:33.606Z,52.98
2019-05-13T21:42:11.619Z,45.08
2019-05-13T21:44:47.294Z,44.38
2019-05-13T21:47:24.896Z,43.02
2019-05-13T21:50:00.608Z,38.78
2019-05-13T21:52:35.848Z,40.48
2019-05-13T21:55:11.712Z,32.93
2019-05-13T21:57:47.507Z,32.33
2019-05-13T22:00:26.346Z,30.65
2019-05-13T22:03:03.010Z,32.40
2019-05-13T22:05:39.003Z,27.60
2019-05-13T22:08:14.488Z,35.05
2019-05-13T22:10:52.227Z,30.95
2019-05-13T22:13:27.341Z,31.85
2019-05-13T22:16:03.190Z,31.87
2019-05-13T22:18:38.798Z,38.60
2019-05-13T22:21:14.437Z,52.00
2019-05-13T22:23:51.620Z,74.97
2019-05-13T22:26:28.473Z,79.45
2019-05-13T22:29:04.351Z,75.28
2019-05-13T22:31:41.993Z,72.75
2019-05-13T22:34:17.112Z,89.92
2019-05-13T22:36:52.904Z,72.72
2019-05-13T22:39:31.526Z,78.62
2019-05-13T22:42:05.155Z,75.85
2019-05-13T22:44:41.749Z,85.42
2019-05-13T22:47:17.666Z,92.27
2019-05-13T22:49:53.288Z,93.42
2019-05-13T22:52:31.100Z,88.72
2019-05-13T22:55:06.405Z,79.37
2019-05-13T22:57:43.533Z,89.07
2019-05-13T23:00:22.528Z,91.10
2019-05-13T23:03:01.481Z,78.02
2019-05-13T23:05:36.472Z,77.65
2019-05-13T23:08:12.491Z,82.97
2019-05-13T23:10:48.252Z,82.88
2019-05-13T23:13:24.271Z,82.27
2019-05-13T23:16:02.134Z,80.03
2019-05-13T23:18:38.094Z,83.92
2019-05-13T23:21:13.739Z,81.80
2019-05-13T23:23:51.325Z,78.20
2019-05-13T23:26:31.503Z,81.50
2019-05-13T23:29:07.510Z,81.87
2019-05-13T23:31:43.111Z,83.03
2019-05-13T23:34:19.273Z,81.45
2019-05-13T23:36:54.830Z,74.93
2019-05-13T23:39:32.202Z,77.03
2019-05-13T23:42:09.034Z,71.45
2019-05-13T23:44:51.775Z,77.37
2019-05-13T23:47:31.041Z,72.95
2019-05-13T23:50:07.267Z,63.25
2019-05-13T23:52:53.455Z,58.87
2019-05-13T23:55:31.941Z,59.45
2019-05-13T23:58:06.164Z,64.27
